createdAt,value
2022-11-27T00:00:18.531Z,3.50
2022-11-27T00:03:08.477Z,3.45
2022-11-27T00:05:58.135Z,3.47
2022-11-27T00:08:47.244Z,3.26
2022-11-27T00:11:39.217Z,3.45
2022-11-27T00:14:27.686Z,3.38
2022-11-27T00:17:16.162Z,3.38
2022-11-27T00:20:07.451Z,3.35
2022-11-27T00:22:55.954Z,3.31
2022-11-27T00:25:51.137Z,3.37
2022-11-27T00:28:40.148Z,3.10
2022-11-27T00:31:30.660Z,3.24
2022-11-27T00:34:19.260Z,3.11
2022-11-27T00:37:09.209Z,2.99
2022-11-27T00:39:57.669Z,2.79
2022-11-27T00:42:46.215Z,2.81
2022-11-27T00:45:34.687Z,2.56
2022-11-27T00:48:23.153Z,2.63
2022-11-27T00:51:13.812Z,2.82
2022-11-27T00:54:04.668Z,2.75
2022-11-27T00:56:53.162Z,2.84
2022-11-27T00:59:41.643Z,2.78
2022-11-27T01:02:30.152Z,2.63
2022-11-27T01:05:19.052Z,2.49
2022-11-27T01:08:09.677Z,2.37
2022-11-27T01:10:59.927Z,2.35
2022-11-27T01:13:49.009Z,2.13
2022-11-27T01:16:42.616Z,2.20
2022-11-27T01:19:31.525Z,2.16
2022-11-27T01:22:19.974Z,2.11
2022-11-27T01:25:09.759Z,2.02
2022-11-27T01:27:59.977Z,1.94
2022-11-27T01:30:48.530Z,1.97
2022-11-27T01:33:37.059Z,1.93
2022-11-27T01:36:26.368Z,1.84
2022-11-27T01:39:16.778Z,1.88
2022-11-27T01:42:05.486Z,1.88
2022-11-27T01:44:56.460Z,1.85
2022-11-27T01:47:47.120Z,1.76
2022-11-27T01:50:37.317Z,1.74
2022-11-27T01:53:26.186Z,1.73
2022-11-27T01:56:14.675Z,1.73
2022-11-27T01:59:04.025Z,1.73
2022-11-27T02:01:53.813Z,1.70
2022-11-27T02:04:42.564Z,1.61
2022-11-27T02:07:31.299Z,1.68
2022-11-27T02:10:20.538Z,1.67
2022-11-27T02:13:11.375Z,1.74
2022-11-27T02:16:07.253Z,0.79
2022-11-27T02:19:00.080Z,1.79
2022-11-27T02:21:55.116Z,1.81
2022-11-27T02:24:50.237Z,1.88
2022-11-27T02:28:07.894Z,1.82
2022-11-27T02:31:01.831Z,1.87
2022-11-27T02:33:53.519Z,1.84
2022-11-27T02:36:45.095Z,1.87
2022-11-27T02:39:36.309Z,1.91
2022-11-27T02:42:24.789Z,1.99
2022-11-27T02:45:15.660Z,2.06
2022-11-27T02:48:06.246Z,2.18
2022-11-27T02:50:55.449Z,2.19
2022-11-27T02:53:46.796Z,2.21
2022-11-27T02:56:35.859Z,2.28
2022-11-27T02:59:25.589Z,2.31
2022-11-27T03:02:19.002Z,2.31
2022-11-27T03:05:11.957Z,2.37
2022-11-27T03:08:03.763Z,2.04
2022-11-27T03:10:55.544Z,2.44
2022-11-27T03:13:46.344Z,2.36
2022-11-27T03:16:39.581Z,2.45
2022-11-27T03:19:32.108Z,2.41
2022-11-27T03:22:21.975Z,2.36
2022-11-27T03:25:10.500Z,2.33
2022-11-27T03:28:01.916Z,2.25
2022-11-27T03:30:50.571Z,2.22
2022-11-27T03:33:39.361Z,2.38
2022-11-27T03:36:27.897Z,2.12
2022-11-27T03:39:17.727Z,2.03
2022-11-27T03:42:15.592Z,1.94
2022-11-27T03:45:09.563Z,2.03
2022-11-27T03:48:07.875Z,1.96
2022-11-27T03:51:04.126Z,1.92
2022-11-27T03:53:55.386Z,1.68
2022-11-27T03:56:49.911Z,1.76
2022-11-27T03:59:40.373Z,1.56
2022-11-27T04:02:31.721Z,1.42
2022-11-27T04:05:20.909Z,1.56
2022-11-27T04:08:09.401Z,1.55
2022-11-27T04:10:57.832Z,1.69
2022-11-27T04:13:47.673Z,1.65
2022-11-27T04:16:36.177Z,1.57
2022-11-27T04:19:24.622Z,1.59
2022-11-27T04:22:13.061Z,1.66
2022-11-27T04:25:01.651Z,1.63
2022-11-27T04:27:50.854Z,1.77
2022-11-27T04:30:40.633Z,1.76
2022-11-27T04:33:29.234Z,1.83
2022-11-27T04:36:17.898Z,1.91
2022-11-27T04:39:06.379Z,1.90
2022-11-27T04:41:54.827Z,1.90
2022-11-27T04:44:43.412Z,1.88
2022-11-27T04:47:33.449Z,1.95
2022-11-27T04:50:21.898Z,1.96
2022-11-27T04:53:10.376Z,1.95
2022-11-27T04:55:58.792Z,1.81
2022-11-27T04:58:47.242Z,1.84
2022-11-27T05:01:35.709Z,1.95
2022-11-27T05:04:25.600Z,1.99
2022-11-27T05:07:14.145Z,1.95
2022-11-27T05:10:02.743Z,1.93
2022-11-27T05:12:51.201Z,1.91
2022-11-27T05:15:39.645Z,1.95
2022-11-27T05:18:28.285Z,1.91
2022-11-27T05:21:18.109Z,1.97
2022-11-27T05:24:07.469Z,1.70
2022-11-27T05:26:56.863Z,2.00
2022-11-27T05:29:45.429Z,1.86
2022-11-27T05:32:33.841Z,1.95
2022-11-27T05:35:22.282Z,1.94
2022-11-27T05:38:12.655Z,1.87
2022-11-27T05:41:01.109Z,1.91
2022-11-27T05:43:49.620Z,1.76
2022-11-27T05:46:38.541Z,1.82
2022-11-27T05:49:27.074Z,1.78
2022-11-27T05:52:15.545Z,1.72
2022-11-27T05:55:05.966Z,1.84
2022-11-27T05:57:54.549Z,1.88
2022-11-27T06:00:43.152Z,1.81
2022-11-27T06:03:31.836Z,1.79
2022-11-27T06:06:21.153Z,1.61
2022-11-27T06:09:13.134Z,1.37
2022-11-27T06:12:03.169Z,1.48
2022-11-27T06:14:51.593Z,1.53
2022-11-27T06:17:40.005Z,1.64
2022-11-27T06:20:28.500Z,1.71
2022-11-27T06:23:16.984Z,1.57
2022-11-27T06:26:16.952Z,1.54
2022-11-27T06:29:06.984Z,1.55
2022-11-27T06:31:55.509Z,1.57
2022-11-27T06:34:43.983Z,1.66
2022-11-27T06:37:32.447Z,1.42
2022-11-27T06:40:20.875Z,1.44
2022-11-27T06:43:09.317Z,1.44
2022-11-27T06:45:59.898Z,1.21
2022-11-27T06:48:50.218Z,1.14
2022-11-27T06:51:38.725Z,1.14
2022-11-27T06:54:27.216Z,1.14
2022-11-27T06:57:16.465Z,1.35
2022-11-27T07:00:05.922Z,1.27
2022-11-27T07:02:56.436Z,1.35
2022-11-27T07:05:44.873Z,1.28
2022-11-27T07:08:33.831Z,1.26
2022-11-27T07:11:23.782Z,1.20
2022-11-27T07:14:12.229Z,1.16
2022-11-27T07:17:00.636Z,1.40
2022-11-27T07:19:50.444Z,1.53
2022-11-27T07:22:39.226Z,1.51
2022-11-27T07:25:27.674Z,1.49
2022-11-27T07:28:18.996Z,1.62
2022-11-27T07:31:07.869Z,1.63
2022-11-27T07:33:56.457Z,1.61
2022-11-27T07:36:46.246Z,1.64
2022-11-27T07:40:00.690Z,1.76
2022-11-27T07:42:43.316Z,1.60
2022-11-27T07:45:31.773Z,1.87
2022-11-27T07:48:20.409Z,1.85
2022-11-27T07:51:09.575Z,1.68
2022-11-27T07:54:00.444Z,1.80
2022-11-27T07:56:48.981Z,1.84
2022-11-27T07:59:37.498Z,1.92
2022-11-27T08:02:26.569Z,2.03
2022-11-27T08:05:15.239Z,2.01
2022-11-27T08:08:04.863Z,2.15
2022-11-27T08:10:54.742Z,2.20
2022-11-27T08:13:43.182Z,2.26
2022-11-27T08:16:32.279Z,2.21
2022-11-27T08:19:20.765Z,2.29
2022-11-27T08:22:12.912Z,1.59
2022-11-27T08:25:01.409Z,2.31
2022-11-27T08:27:51.257Z,2.39
2022-11-27T08:30:39.719Z,2.37
2022-11-27T08:33:28.434Z,1.91
2022-11-27T08:36:18.263Z,2.05
2022-11-27T08:39:07.075Z,2.34
2022-11-27T08:41:55.610Z,2.51
2022-11-27T08:44:45.585Z,2.61
2022-11-27T08:47:34.065Z,2.56
2022-11-27T08:50:22.528Z,2.67
2022-11-27T08:53:11.053Z,2.94
2022-11-27T08:56:06.921Z,3.14
2022-11-27T08:58:55.573Z,3.57
2022-11-27T09:01:45.729Z,3.98
2022-11-27T09:04:34.907Z,4.21
2022-11-27T09:07:23.998Z,4.43
2022-11-27T09:10:12.923Z,4.52
2022-11-27T09:13:01.695Z,4.74
2022-11-27T09:15:50.752Z,5.02
2022-11-27T09:18:41.666Z,5.16
2022-11-27T09:21:31.612Z,5.27
2022-11-27T09:24:20.154Z,5.09
2022-11-27T09:27:08.797Z,4.90
2022-11-27T09:29:57.429Z,4.78
2022-11-27T09:32:46.023Z,4.75
2022-11-27T09:35:38.729Z,4.74
2022-11-27T09:38:27.492Z,4.74
2022-11-27T09:41:40.811Z,4.67
2022-11-27T09:44:34.182Z,4.55
2022-11-27T09:47:41.167Z,4.44
2022-11-27T09:50:32.403Z,3.81
2022-11-27T09:53:27.978Z,4.36
2022-11-27T09:56:18.692Z,4.63
2022-11-27T09:59:16.305Z,4.73
2022-11-27T10:02:04.942Z,4.72
2022-11-27T10:08:17.463Z,4.86
2022-11-27T10:11:17.048Z,4.98
2022-11-27T10:14:18.094Z,4.98
2022-11-27T10:17:09.662Z,4.92
2022-11-27T10:20:03.024Z,5.05
2022-11-27T10:22:55.971Z,5.00
2022-11-27T10:25:47.998Z,4.90
2022-11-27T10:28:41.383Z,5.04
2022-11-27T10:31:36.301Z,4.99
2022-11-27T10:34:31.290Z,4.99
2022-11-27T10:37:23.973Z,5.04
2022-11-27T10:40:20.683Z,5.00
2022-11-27T10:43:13.099Z,4.98
2022-11-27T10:46:05.093Z,4.92
2022-11-27T10:48:53.587Z,4.84
2022-11-27T10:51:42.471Z,5.05
2022-11-27T10:54:34.950Z,5.10
2022-11-27T10:57:33.104Z,4.99
2022-11-27T11:00:24.115Z,5.02
2022-11-27T11:03:18.732Z,5.07
2022-11-27T11:06:20.743Z,5.19
2022-11-27T11:09:16.040Z,4.38
2022-11-27T11:12:08.697Z,5.25
2022-11-27T11:14:58.928Z,5.27
2022-11-27T11:17:47.579Z,4.92
2022-11-27T11:20:37.528Z,5.44
2022-11-27T11:23:32.346Z,5.43
2022-11-27T11:26:27.241Z,5.46
2022-11-27T11:29:30.493Z,5.48
2022-11-27T11:32:24.709Z,5.42
2022-11-27T11:35:31.491Z,5.33
2022-11-27T11:38:27.856Z,5.40
2022-11-27T11:41:18.950Z,5.47
2022-11-27T11:44:07.588Z,5.42
2022-11-27T11:46:56.081Z,5.36
2022-11-27T11:49:44.638Z,5.45
2022-11-27T11:52:42.373Z,5.38
2022-11-27T11:55:37.206Z,5.44
2022-11-27T11:58:36.571Z,5.23
2022-11-27T12:01:39.027Z,5.39
2022-11-27T12:04:57.371Z,5.43
2022-11-27T12:07:55.581Z,5.47
2022-11-27T12:10:53.942Z,5.49
2022-11-27T12:13:55.882Z,5.47
2022-11-27T12:16:56.115Z,5.40
2022-11-27T12:19:56.391Z,5.40
2022-11-27T12:23:22.935Z,5.34
2022-11-27T12:26:21.764Z,5.43
2022-11-27T12:29:33.484Z,5.59
2022-11-27T12:32:33.054Z,5.62
2022-11-27T12:35:32.131Z,5.65
2022-11-27T12:38:34.866Z,5.62
2022-11-27T12:41:47.071Z,5.69
2022-11-27T12:44:47.924Z,5.68
2022-11-27T12:47:40.494Z,5.66
2022-11-27T12:50:35.255Z,5.52
2022-11-27T12:53:28.427Z,5.47
2022-11-27T12:56:22.031Z,5.38
2022-11-27T12:59:18.055Z,5.19
2022-11-27T13:02:18.492Z,5.24
2022-11-27T13:05:11.292Z,5.52
2022-11-27T13:08:02.388Z,5.41
2022-11-27T13:10:54.919Z,5.46
2022-11-27T13:13:45.637Z,5.53
2022-11-27T13:16:40.911Z,5.48
2022-11-27T13:19:33.198Z,5.54
2022-11-27T13:22:27.715Z,5.38
2022-11-27T13:25:16.348Z,5.55
2022-11-27T13:28:06.175Z,5.58
2022-11-27T13:30:55.727Z,5.54
2022-11-27T13:33:46.729Z,5.30
2022-11-27T13:36:38.163Z,5.47
2022-11-27T13:39:29.860Z,5.49
2022-11-27T13:42:21.160Z,5.32
2022-11-27T13:45:18.936Z,5.59
2022-11-27T13:48:23.239Z,5.49
2022-11-27T13:51:24.197Z,5.58
2022-11-27T13:54:14.330Z,5.60
2022-11-27T13:57:14.307Z,5.52
2022-11-27T14:00:05.169Z,5.64
2022-11-27T14:02:53.638Z,5.58
2022-11-27T14:05:44.775Z,5.54
2022-11-27T14:08:35.886Z,5.37
2022-11-27T14:11:36.982Z,5.52
2022-11-27T14:14:28.022Z,5.49
2022-11-27T14:17:26.220Z,5.51
2022-11-27T14:20:28.007Z,5.39
2022-11-27T14:23:27.922Z,5.42
2022-11-27T14:26:23.685Z,5.27
2022-11-27T14:29:12.708Z,5.58
2022-11-27T14:32:03.044Z,5.55
2022-11-27T14:34:51.615Z,5.47
2022-11-27T14:37:40.086Z,5.44
2022-11-27T14:40:29.119Z,5.48
2022-11-27T14:43:20.389Z,5.38
2022-11-27T14:46:15.377Z,5.35
2022-11-27T14:49:04.230Z,5.54
2022-11-27T14:51:53.079Z,5.57
2022-11-27T14:54:42.533Z,3.54
2022-11-27T14:57:31.438Z,5.52
2022-11-27T15:00:24.266Z,5.51
2022-11-27T15:03:21.434Z,5.51
2022-11-27T15:06:18.049Z,5.61
2022-11-27T15:09:30.796Z,5.53
2022-11-27T15:12:18.297Z,5.54
2022-11-27T15:15:09.400Z,5.55
2022-11-27T15:18:01.110Z,5.55
2022-11-27T15:20:50.260Z,5.59
2022-11-27T15:23:39.664Z,5.56
2022-11-27T15:26:34.872Z,5.36
2022-11-27T15:29:33.704Z,5.44
2022-11-27T15:32:24.559Z,5.61
2022-11-27T15:35:17.991Z,5.59
2022-11-27T15:38:10.581Z,5.64
2022-11-27T15:41:01.861Z,5.57
2022-11-27T15:43:50.511Z,5.54
2022-11-27T15:46:39.030Z,5.54
2022-11-27T15:49:27.646Z,5.49
2022-11-27T15:52:17.717Z,5.54
2022-11-27T15:55:07.415Z,5.49
2022-11-27T15:57:55.981Z,5.47
2022-11-27T16:00:44.919Z,5.60
2022-11-27T16:03:33.450Z,5.54
2022-11-27T16:06:23.443Z,5.52
2022-11-27T16:09:13.508Z,5.61
2022-11-27T16:12:02.258Z,5.54
2022-11-27T16:14:50.837Z,5.49
2022-11-27T16:17:39.665Z,5.54
2022-11-27T16:20:28.708Z,5.70
2022-11-27T16:23:17.388Z,5.61
2022-11-27T16:26:07.668Z,5.54
2022-11-27T16:28:56.256Z,5.50
2022-11-27T16:31:44.967Z,5.50
2022-11-27T16:34:33.726Z,5.51
2022-11-27T16:37:22.460Z,5.44
2022-11-27T16:40:11.914Z,5.43
2022-11-27T16:43:02.495Z,5.42
2022-11-27T16:45:51.163Z,5.21
2022-11-27T16:48:41.167Z,5.36
2022-11-27T16:51:32.039Z,5.32
2022-11-27T16:54:20.543Z,5.28
2022-11-27T16:57:09.134Z,5.27
2022-11-27T16:59:59.489Z,5.25
2022-11-27T17:02:48.063Z,5.26
2022-11-27T17:05:38.143Z,5.11
2022-11-27T17:08:27.078Z,5.21
2022-11-27T17:11:17.269Z,5.15
2022-11-27T17:14:08.329Z,5.17
2022-11-27T17:16:58.387Z,5.16
2022-11-27T17:19:49.073Z,5.16
2022-11-27T17:22:37.638Z,5.22
2022-11-27T17:25:26.261Z,5.20
2022-11-27T17:28:14.800Z,5.17
2022-11-27T17:31:03.511Z,5.14
2022-11-27T17:33:56.656Z,5.11
2022-11-27T17:36:45.545Z,5.17
2022-11-27T17:39:34.334Z,5.13
2022-11-27T17:42:23.171Z,5.11
2022-11-27T17:45:12.295Z,5.15
2022-11-27T17:48:01.881Z,5.20
2022-11-27T17:50:52.004Z,5.15
2022-11-27T17:53:40.548Z,5.14
2022-11-27T17:56:29.980Z,5.06
2022-11-27T17:59:18.848Z,4.07
2022-11-27T18:02:07.430Z,4.94
2022-11-27T18:04:55.953Z,4.21
2022-11-27T18:07:45.917Z,5.14
2022-11-27T18:10:35.047Z,5.09
2022-11-27T18:13:26.333Z,5.15
2022-11-27T18:16:16.781Z,5.17
2022-11-27T18:19:07.130Z,5.09
2022-11-27T18:21:55.662Z,5.05
2022-11-27T18:24:46.579Z,5.15
2022-11-27T18:27:36.022Z,5.19
2022-11-27T18:30:24.973Z,5.11
2022-11-27T18:33:13.508Z,5.06
2022-11-27T18:36:02.468Z,4.94
2022-11-27T18:38:51.906Z,5.14
2022-11-27T18:41:41.855Z,5.07
2022-11-27T18:44:30.343Z,5.15
2022-11-27T18:47:19.037Z,5.17
2022-11-27T18:50:08.818Z,5.29
2022-11-27T18:52:57.393Z,5.24
2022-11-27T18:55:48.950Z,5.25
2022-11-27T18:58:43.014Z,5.11
2022-11-27T19:01:39.571Z,5.22
2022-11-27T19:04:30.277Z,5.14
2022-11-27T19:07:18.842Z,5.17
2022-11-27T19:10:08.678Z,5.25
2022-11-27T19:12:57.186Z,5.25
2022-11-27T19:15:47.359Z,5.42
2022-11-27T19:18:36.916Z,5.32
2022-11-27T19:21:27.655Z,5.33
2022-11-27T19:24:16.288Z,5.44
2022-11-27T19:27:05.028Z,5.31
2022-11-27T19:29:53.716Z,5.37
2022-11-27T19:32:43.638Z,5.40
2022-11-27T19:35:32.770Z,5.50
2022-11-27T19:38:21.370Z,5.51
2022-11-27T19:41:13.418Z,5.59
2022-11-27T19:44:02.017Z,5.53
2022-11-27T19:46:50.501Z,4.77
2022-11-27T19:49:40.460Z,5.30
2022-11-27T19:52:28.991Z,5.35
2022-11-27T19:55:17.588Z,5.39
2022-11-27T19:58:06.167Z,5.42
2022-11-27T20:00:54.978Z,5.26
2022-11-27T20:03:44.009Z,5.67
2022-11-27T20:06:33.834Z,5.82
2022-11-27T20:09:22.328Z,5.50
2022-11-27T20:12:10.932Z,5.61
2022-11-27T20:14:59.539Z,5.55
2022-11-27T20:17:48.007Z,5.43
2022-11-27T20:20:36.593Z,5.51
2022-11-27T20:23:26.461Z,5.28
2022-11-27T20:26:17.234Z,5.69
2022-11-27T20:29:06.323Z,5.74
2022-11-27T20:31:54.884Z,5.65
2022-11-27T20:34:43.655Z,5.65
2022-11-27T20:37:32.540Z,5.66
2022-11-27T20:40:23.783Z,5.62
2022-11-27T20:43:12.364Z,4.86
2022-11-27T20:46:01.088Z,5.63
2022-11-27T20:48:51.300Z,5.61
2022-11-27T20:51:39.986Z,5.68
2022-11-27T20:54:29.246Z,5.75
2022-11-27T20:57:19.248Z,5.72
2022-11-27T21:00:09.821Z,5.70
2022-11-27T21:02:58.353Z,5.69
2022-11-27T21:05:48.150Z,5.71
2022-11-27T21:08:36.878Z,5.63
2022-11-27T21:11:27.440Z,5.62
2022-11-27T21:14:20.814Z,5.64
2022-11-27T21:17:09.452Z,5.62
2022-11-27T21:19:58.011Z,5.61
2022-11-27T21:22:46.508Z,5.67
2022-11-27T21:25:35.310Z,5.70
2022-11-27T21:28:23.881Z,5.73
2022-11-27T21:31:17.193Z,5.71
2022-11-27T21:34:07.356Z,5.65
2022-11-27T21:36:55.929Z,5.61
2022-11-27T21:39:45.072Z,5.65
2022-11-27T21:42:33.599Z,5.57
2022-11-27T21:45:22.046Z,5.57
2022-11-27T21:48:14.458Z,5.61
2022-11-27T21:51:03.703Z,5.60
2022-11-27T21:53:53.548Z,5.54
2022-11-27T21:56:42.116Z,5.60
2022-11-27T21:59:30.665Z,5.57
2022-11-27T22:02:19.217Z,5.57
2022-11-27T22:05:10.104Z,5.69
2022-11-27T22:07:58.685Z,5.86
2022-11-27T22:10:47.210Z,5.83
2022-11-27T22:13:36.311Z,5.88
2022-11-27T22:16:26.112Z,5.83
2022-11-27T22:19:15.537Z,5.79
2022-11-27T22:22:05.379Z,5.72
2022-11-27T22:24:53.870Z,5.73
2022-11-27T22:27:42.357Z,5.74
2022-11-27T22:30:30.894Z,5.79
2022-11-27T22:33:19.727Z,5.80
2022-11-27T22:36:13.256Z,5.81
2022-11-27T22:39:04.981Z,5.77
2022-11-27T22:41:54.557Z,5.71
2022-11-27T22:44:43.312Z,5.68
2022-11-27T22:47:31.940Z,5.67
2022-11-27T22:50:20.874Z,5.64
2022-11-27T22:53:09.360Z,5.58
2022-11-27T22:56:04.787Z,5.68
2022-11-27T22:59:11.275Z,5.81
2022-11-27T23:02:02.231Z,5.69
2022-11-27T23:04:50.786Z,5.69
2022-11-27T23:07:39.270Z,5.63
2022-11-27T23:10:27.807Z,5.59
2022-11-27T23:13:18.039Z,5.56
2022-11-27T23:16:07.388Z,5.52
2022-11-27T23:18:55.996Z,5.17
2022-11-27T23:21:44.949Z,5.50
2022-11-27T23:24:33.479Z,5.47
2022-11-27T23:27:22.018Z,5.45
2022-11-27T23:30:12.632Z,5.46
2022-11-27T23:33:01.264Z,5.46
2022-11-27T23:35:49.718Z,5.46
2022-11-27T23:38:40.851Z,5.45
2022-11-27T23:41:29.888Z,5.45
2022-11-27T23:44:18.388Z,5.44
2022-11-27T23:47:08.259Z,5.47
2022-11-27T23:49:57.399Z,5.45
2022-11-27T23:52:45.867Z,5.42
2022-11-27T23:55:34.627Z,5.33
2022-11-27T23:58:23.143Z,5.40
